createdAt,value
2023-02-12T00:02:59.957Z,99795.98
2023-02-12T00:13:07.337Z,99798.80
2023-02-12T00:23:14.490Z,99811.40
2023-02-12T00:33:21.593Z,99811.20
2023-02-12T00:43:28.607Z,99818.11
2023-02-12T00:53:36.288Z,99830.64
2023-02-12T01:03:43.291Z,99849.30
2023-02-12T01:13:51.207Z,99867.13
2023-02-12T01:23:58.987Z,99882.10
2023-02-12T01:34:07.266Z,99890.80
2023-02-12T01:44:15.791Z,99902.50
2023-02-12T01:54:25.985Z,99920.79
2023-02-12T02:04:38.947Z,99924.70
2023-02-12T02:14:47.864Z,99933.54
2023-02-12T02:25:19.114Z,99934.93
2023-02-12T02:35:25.933Z,99952.55
2023-02-12T02:45:39.261Z,99957.52
2023-02-12T02:55:50.804Z,99966.38
2023-02-12T03:06:00.437Z,99984.23
2023-02-12T03:16:07.621Z,99994.66
2023-02-12T03:26:18.367Z,100007.51
2023-02-12T03:36:26.716Z,100038.54
2023-02-12T03:46:36.701Z,100053.98
2023-02-12T03:56:48.022Z,100070.50
2023-02-12T04:06:56.220Z,100094.29
2023-02-12T04:17:20.878Z,100112.52
2023-02-12T04:27:36.467Z,100122.04
2023-02-12T04:37:46.974Z,100143.85
2023-02-12T04:47:54.781Z,100166.70
2023-02-12T04:58:02.152Z,100188.15
2023-02-12T05:08:09.505Z,100207.89
2023-02-12T05:18:16.696Z,100232.21
2023-02-12T05:28:23.692Z,100248.69
2023-02-12T05:38:30.739Z,100261.20
2023-02-12T05:48:38.595Z,100280.11
2023-02-12T05:58:48.189Z,100298.38
2023-02-12T06:08:54.045Z,100317.16
2023-02-12T06:19:02.547Z,100338.52
2023-02-12T06:29:10.044Z,100342.09
2023-02-12T06:39:19.293Z,100356.73
2023-02-12T06:49:26.818Z,100373.45
2023-02-12T06:59:33.857Z,100386.43
2023-02-12T07:09:41.268Z,100399.31
2023-02-12T07:19:48.605Z,100408.02
2023-02-12T07:29:55.564Z,100410.08
2023-02-12T07:40:02.152Z,100420.27
2023-02-12T07:50:11.255Z,100436.55
2023-02-12T08:00:20.111Z,100443.80
2023-02-12T08:10:27.338Z,100447.57
2023-02-12T08:20:36.808Z,100453.42
2023-02-12T08:30:44.298Z,100461.05
2023-02-12T08:40:51.468Z,100476.45
2023-02-12T08:51:04.581Z,100480.20
2023-02-12T09:01:13.166Z,100480.55
2023-02-12T09:11:21.838Z,100486.49
2023-02-12T09:21:29.527Z,100493.54
2023-02-12T09:31:36.787Z,100510.86
2023-02-12T09:42:00.876Z,100520.35
2023-02-12T09:52:07.686Z,100535.08
2023-02-12T10:02:13.856Z,100539.08
2023-02-12T10:12:19.340Z,100534.71
2023-02-12T10:22:31.344Z,100523.08
2023-02-12T10:32:39.295Z,100523.90
2023-02-12T10:42:49.594Z,100536.27
2023-02-12T10:52:55.358Z,100527.05
2023-02-12T11:03:20.609Z,100518.66
2023-02-12T11:13:25.460Z,100509.61
2023-02-12T11:23:34.517Z,100509.65
2023-02-12T11:33:41.685Z,100516.20
2023-02-12T11:43:50.861Z,100514.64
2023-02-12T11:54:01.911Z,100509.80
2023-02-12T12:04:14.047Z,100507.77
2023-02-12T12:14:19.550Z,100517.71
2023-02-12T12:24:32.461Z,100514.88
2023-02-12T12:34:39.565Z,100517.95
2023-02-12T12:44:50.022Z,100519.41
2023-02-12T12:55:02.981Z,100512.47
2023-02-12T13:05:30.620Z,100512.00
2023-02-12T13:15:36.673Z,100508.66
2023-02-12T13:25:47.718Z,100510.16
2023-02-12T13:35:53.268Z,100516.36
2023-02-12T13:45:58.652Z,100524.29
2023-02-12T13:56:08.424Z,100527.81
2023-02-12T14:06:15.860Z,100529.74
2023-02-12T14:16:22.386Z,100533.98
2023-02-12T14:26:38.143Z,100539.70
2023-02-12T14:36:50.092Z,100539.65
2023-02-12T14:46:58.984Z,100541.83
2023-02-12T14:57:08.477Z,100542.54
2023-02-12T15:07:24.145Z,100540.08
2023-02-12T15:17:34.201Z,100535.84
2023-02-12T15:27:43.871Z,100537.59
2023-02-12T15:37:52.296Z,100541.38
2023-02-12T15:47:58.699Z,100540.11
2023-02-12T15:58:07.163Z,100539.15
2023-02-12T16:08:15.916Z,100544.54
2023-02-12T16:18:29.881Z,100546.16
2023-02-12T16:28:38.720Z,100553.41
2023-02-12T16:38:43.816Z,100559.63
2023-02-12T16:48:51.335Z,100555.16
2023-02-12T16:59:00.702Z,100554.64
2023-02-12T17:09:07.971Z,100560.20
2023-02-12T17:19:16.076Z,100563.56
2023-02-12T17:29:26.367Z,100564.91
2023-02-12T17:39:33.955Z,100563.10
2023-02-12T17:49:41.752Z,100563.67
2023-02-12T17:59:49.113Z,100553.63
2023-02-12T18:09:56.542Z,100548.13
2023-02-12T18:30:13.271Z,100544.80
2023-02-12T18:40:20.894Z,100550.44
2023-02-12T18:50:28.074Z,100562.52
2023-02-12T19:00:35.385Z,100558.29
2023-02-12T19:10:42.402Z,100551.23
2023-02-12T19:20:49.638Z,100547.36
2023-02-12T19:30:57.738Z,100556.23
2023-02-12T19:41:09.500Z,100546.79
2023-02-12T19:51:14.444Z,100545.55
2023-02-12T20:01:22.805Z,100546.21
2023-02-12T20:11:32.675Z,100540.64
2023-02-12T20:21:40.939Z,100533.27
2023-02-12T20:31:47.212Z,100524.20
2023-02-12T20:41:55.097Z,100526.73
2023-02-12T20:52:02.356Z,100528.48
2023-02-12T21:02:11.367Z,100520.07
2023-02-12T21:12:19.662Z,100518.52
2023-02-12T21:22:26.947Z,100536.55
2023-02-12T21:32:34.583Z,100530.97
2023-02-12T21:42:41.940Z,100517.67
2023-02-12T21:52:48.916Z,100520.02
2023-02-12T22:02:56.040Z,100517.61
2023-02-12T22:13:04.025Z,100519.02
2023-02-12T22:23:10.951Z,100498.08
2023-02-12T22:33:18.146Z,100490.85
2023-02-12T22:43:25.374Z,100509.69
2023-02-12T22:53:32.548Z,100518.52
2023-02-12T23:03:39.725Z,100526.52
2023-02-12T23:13:47.380Z,100523.77
2023-02-12T23:23:55.301Z,100516.95
2023-02-12T23:34:02.626Z,100517.19
2023-02-12T23:44:10.424Z,100522.61
2023-02-12T23:54:17.860Z,100513.46
